sensor_id;sensor_type;location;lat;lon;timestamp;pressure;altitude;pressure_sealevel;temperature;humidity
35655;BME280;21773;50.010;19.972;2023-03-19T00:01:37;98912.66;;;11.98;29.29
35655;BME280;21773;50.010;19.972;2023-03-19T00:04:42;98919.03;;;11.92;28.83
35655;BME280;21773;50.010;19.972;2023-03-19T00:07:46;98918.41;;;11.90;29.16
35655;BME280;21773;50.010;19.972;2023-03-19T00:10:49;98926.16;;;11.86;28.66
35655;BME280;21773;50.010;19.972;2023-03-19T00:13:52;98921.06;;;11.78;28.67
35655;BME280;21773;50.010;19.972;2023-03-19T00:16:56;98922.41;;;11.69;30.06
35655;BME280;21773;50.010;19.972;2023-03-19T00:20:01;98927.06;;;11.62;29.84
35655;BME280;21773;50.010;19.972;2023-03-19T00:23:04;98924.66;;;11.54;29.49
35655;BME280;21773;50.010;19.972;2023-03-19T00:26:08;98930.44;;;11.39;30.91
35655;BME280;21773;50.010;19.972;2023-03-19T00:29:12;98936.84;;;11.26;30.27
35655;BME280;21773;50.010;19.972;2023-03-19T00:32:15;98923.88;;;11.17;30.42
35655;BME280;21773;50.010;19.972;2023-03-19T00:35:20;98931.88;;;11.05;31.26
35655;BME280;21773;50.010;19.972;2023-03-19T00:38:23;98925.75;;;10.98;32.09
35655;BME280;21773;50.010;19.972;2023-03-19T00:41:27;98926.84;;;10.91;31.79
35655;BME280;21773;50.010;19.972;2023-03-19T00:44:30;98930.28;;;10.79;32.27
35655;BME280;21773;50.010;19.972;2023-03-19T00:47:33;98921.22;;;10.74;32.04
35655;BME280;21773;50.010;19.972;2023-03-19T00:50:38;98913.34;;;10.72;32.18
35655;BME280;21773;50.010;19.972;2023-03-19T00:53:43;98912.50;;;10.72;32.49
35655;BME280;21773;50.010;19.972;2023-03-19T00:56:46;98909.66;;;10.67;32.58
35655;BME280;21773;50.010;19.972;2023-03-19T00:59:50;98919.44;;;10.61;33.06
35655;BME280;21773;50.010;19.972;2023-03-19T01:02:53;98914.94;;;10.55;32.85
35655;BME280;21773;50.010;19.972;2023-03-19T01:05:58;98886.19;;;10.24;33.48
35655;BME280;21773;50.010;19.972;2023-03-19T01:09:01;98905.41;;;10.28;33.95
35655;BME280;21773;50.010;19.972;2023-03-19T01:12:05;98908.59;;;10.18;34.52
35655;BME280;21773;50.010;19.972;2023-03-19T01:15:09;98911.91;;;10.14;34.72
35655;BME280;21773;50.010;19.972;2023-03-19T01:18:13;98904.75;;;10.01;34.91
35655;BME280;21773;50.010;19.972;2023-03-19T01:21:17;98912.31;;;9.86;34.91
35655;BME280;21773;50.010;19.972;2023-03-19T01:24:22;98906.56;;;9.76;35.43
35655;BME280;21773;50.010;19.972;2023-03-19T01:27:28;98910.03;;;9.51;36.58
35655;BME280;21773;50.010;19.972;2023-03-19T01:30:31;98911.53;;;9.34;36.92
35655;BME280;21773;50.010;19.972;2023-03-19T01:34:04;98912.63;;;9.20;38.22
35655;BME280;21773;50.010;19.972;2023-03-19T01:37:23;98912.28;;;9.03;40.06
35655;BME280;21773;50.010;19.972;2023-03-19T01:40:27;98909.19;;;8.87;40.04
35655;BME280;21773;50.010;19.972;2023-03-19T01:43:31;98908.19;;;8.75;40.48
35655;BME280;21773;50.010;19.972;2023-03-19T01:47:14;98909.22;;;8.67;40.25
35655;BME280;21773;50.010;19.972;2023-03-19T01:50:55;98909.47;;;8.59;40.56
35655;BME280;21773;50.010;19.972;2023-03-19T01:54:23;98903.44;;;8.57;40.28
35655;BME280;21773;50.010;19.972;2023-03-19T01:57:46;98905.09;;;8.51;40.52
35655;BME280;21773;50.010;19.972;2023-03-19T02:01:09;98910.28;;;8.46;40.68
35655;BME280;21773;50.010;19.972;2023-03-19T02:04:17;98910.72;;;8.50;40.25
35655;BME280;21773;50.010;19.972;2023-03-19T02:07:21;98916.88;;;8.57;40.26
35655;BME280;21773;50.010;19.972;2023-03-19T02:10:28;98910.28;;;8.59;40.06
35655;BME280;21773;50.010;19.972;2023-03-19T02:13:33;98913.16;;;8.58;39.81
35655;BME280;21773;50.010;19.972;2023-03-19T02:16:36;98912.53;;;8.56;40.50
35655;BME280;21773;50.010;19.972;2023-03-19T02:19:47;98904.06;;;8.52;40.39
35655;BME280;21773;50.010;19.972;2023-03-19T02:22:59;98902.63;;;8.56;39.92
35655;BME280;21773;50.010;19.972;2023-03-19T02:26:09;98901.16;;;8.60;39.07
35655;BME280;21773;50.010;19.972;2023-03-19T02:29:13;98913.38;;;8.69;38.67
35655;BME280;21773;50.010;19.972;2023-03-19T02:32:19;98912.72;;;8.81;38.41
35655;BME280;21773;50.010;19.972;2023-03-19T02:35:22;98918.09;;;8.81;38.27
35655;BME280;21773;50.010;19.972;2023-03-19T02:38:26;98921.81;;;8.80;38.19
35655;BME280;21773;50.010;19.972;2023-03-19T02:41:36;98920.16;;;8.85;38.05
35655;BME280;21773;50.010;19.972;2023-03-19T02:44:40;98934.03;;;8.89;38.30
35655;BME280;21773;50.010;19.972;2023-03-19T02:47:44;98931.34;;;8.89;38.19
35655;BME280;21773;50.010;19.972;2023-03-19T02:50:47;98927.81;;;8.88;38.44
35655;BME280;21773;50.010;19.972;2023-03-19T02:53:51;98899.31;;;8.61;39.14
35655;BME280;21773;50.010;19.972;2023-03-19T02:56:55;98930.13;;;8.58;39.53
35655;BME280;21773;50.010;19.972;2023-03-19T02:59:59;98927.63;;;8.37;40.33
35655;BME280;21773;50.010;19.972;2023-03-19T03:03:05;98927.22;;;8.20;40.53
35655;BME280;21773;50.010;19.972;2023-03-19T03:06:09;98928.22;;;8.13;41.17
35655;BME280;21773;50.010;19.972;2023-03-19T03:09:13;98925.72;;;8.11;40.95
35655;BME280;21773;50.010;19.972;2023-03-19T03:12:18;98926.78;;;8.10;41.06
35655;BME280;21773;50.010;19.972;2023-03-19T03:15:21;98941.03;;;8.11;41.21
35655;BME280;21773;50.010;19.972;2023-03-19T03:18:25;98933.78;;;8.18;41.37
35655;BME280;21773;50.010;19.972;2023-03-19T03:21:28;98932.78;;;8.25;42.05
35655;BME280;21773;50.010;19.972;2023-03-19T03:24:34;98924.28;;;8.22;42.20
35655;BME280;21773;50.010;19.972;2023-03-19T03:27:39;98945.41;;;8.38;42.06
35655;BME280;21773;50.010;19.972;2023-03-19T03:30:43;98938.19;;;8.32;42.00
35655;BME280;21773;50.010;19.972;2023-03-19T03:33:46;98936.47;;;8.11;41.99
35655;BME280;21773;50.010;19.972;2023-03-19T03:36:50;98948.22;;;7.91;42.37
35655;BME280;21773;50.010;19.972;2023-03-19T03:39:53;98948.13;;;7.64;42.99
35655;BME280;21773;50.010;19.972;2023-03-19T03:42:58;98940.66;;;7.53;43.12
35655;BME280;21773;50.010;19.972;2023-03-19T03:46:01;98948.88;;;7.45;43.22
35655;BME280;21773;50.010;19.972;2023-03-19T03:49:05;98939.19;;;7.44;43.68
35655;BME280;21773;50.010;19.972;2023-03-19T03:52:08;98952.19;;;7.40;43.57
35655;BME280;21773;50.010;19.972;2023-03-19T03:55:11;98959.84;;;7.50;44.14
35655;BME280;21773;50.010;19.972;2023-03-19T03:58:17;98958.81;;;7.51;43.58
35655;BME280;21773;50.010;19.972;2023-03-19T04:01:20;98959.84;;;7.50;43.65
35655;BME280;21773;50.010;19.972;2023-03-19T04:04:28;98967.47;;;7.53;44.34
35655;BME280;21773;50.010;19.972;2023-03-19T04:07:31;98968.09;;;7.49;44.28
35655;BME280;21773;50.010;19.972;2023-03-19T04:10:38;98948.25;;;7.36;43.60
35655;BME280;21773;50.010;19.972;2023-03-19T04:13:44;98960.44;;;7.46;44.25
35655;BME280;21773;50.010;19.972;2023-03-19T04:16:47;98966.66;;;7.46;44.20
35655;BME280;21773;50.010;19.972;2023-03-19T04:19:51;98965.41;;;7.49;44.25
35655;BME280;21773;50.010;19.972;2023-03-19T04:22:54;98962.31;;;7.45;44.45
35655;BME280;21773;50.010;19.972;2023-03-19T04:25:58;98963.91;;;7.33;44.45
35655;BME280;21773;50.010;19.972;2023-03-19T04:29:05;98969.41;;;7.25;44.47
35655;BME280;21773;50.010;19.972;2023-03-19T04:32:10;98971.69;;;7.21;44.72
35655;BME280;21773;50.010;19.972;2023-03-19T04:35:13;98946.44;;;7.09;44.81
35655;BME280;21773;50.010;19.972;2023-03-19T04:38:17;98957.63;;;7.13;44.82
35655;BME280;21773;50.010;19.972;2023-03-19T04:41:20;98939.34;;;6.95;45.00
35655;BME280;21773;50.010;19.972;2023-03-19T04:44:37;98950.66;;;6.90;45.32
35655;BME280;21773;50.010;19.972;2023-03-19T04:47:40;98949.59;;;6.85;45.38
35655;BME280;21773;50.010;19.972;2023-03-19T04:50:44;98950.06;;;6.88;45.25
35655;BME280;21773;50.010;19.972;2023-03-19T04:53:48;98947.16;;;6.90;45.18
35655;BME280;21773;50.010;19.972;2023-03-19T04:56:52;98956.91;;;6.97;44.89
35655;BME280;21773;50.010;19.972;2023-03-19T04:59:59;98954.06;;;7.06;45.12
35655;BME280;21773;50.010;19.972;2023-03-19T05:03:04;98953.09;;;7.13;44.96
35655;BME280;21773;50.010;19.972;2023-03-19T05:06:09;98951.19;;;7.14;45.07
35655;BME280;21773;50.010;19.972;2023-03-19T05:09:12;98947.56;;;7.21;45.02
35655;BME280;21773;50.010;19.972;2023-03-19T05:12:17;98954.59;;;7.29;45.03
35655;BME280;21773;50.010;19.972;2023-03-19T05:15:25;98952.19;;;7.40;44.90
35655;BME280;21773;50.010;19.972;2023-03-19T05:18:40;98951.44;;;7.60;45.06
35655;BME280;21773;50.010;19.972;2023-03-19T05:21:44;98948.38;;;7.76;44.58
35655;BME280;21773;50.010;19.972;2023-03-19T05:24:51;98950.28;;;7.95;44.54
35655;BME280;21773;50.010;19.972;2023-03-19T05:27:55;98946.59;;;8.09;44.46
35655;BME280;21773;50.010;19.972;2023-03-19T05:31:02;98929.66;;;8.22;43.88
35655;BME280;21773;50.010;19.972;2023-03-19T05:34:15;98945.63;;;8.50;43.82
35655;BME280;21773;50.010;19.972;2023-03-19T05:37:19;98937.38;;;8.64;43.49
35655;BME280;21773;50.010;19.972;2023-03-19T05:40:28;98947.91;;;8.79;43.01
35655;BME280;21773;50.010;19.972;2023-03-19T05:43:37;98946.63;;;8.88;43.30
35655;BME280;21773;50.010;19.972;2023-03-19T05:46:47;98944.31;;;9.05;43.02
35655;BME280;21773;50.010;19.972;2023-03-19T05:49:53;98946.56;;;9.21;42.79
35655;BME280;21773;50.010;19.972;2023-03-19T05:52:57;98941.94;;;9.41;42.68
35655;BME280;21773;50.010;19.972;2023-03-19T05:56:01;98938.97;;;9.63;42.19
35655;BME280;21773;50.010;19.972;2023-03-19T05:59:10;98934.69;;;9.86;41.73
35655;BME280;21773;50.010;19.972;2023-03-19T06:02:18;98927.25;;;10.13;41.42
35655;BME280;21773;50.010;19.972;2023-03-19T06:05:26;98933.31;;;10.40;41.05
35655;BME280;21773;50.010;19.972;2023-03-19T06:08:35;98937.44;;;10.67;40.61
35655;BME280;21773;50.010;19.972;2023-03-19T06:11:49;98942.19;;;10.90;40.40
35655;BME280;21773;50.010;19.972;2023-03-19T06:15:15;98941.25;;;11.21;40.25
35655;BME280;21773;50.010;19.972;2023-03-19T06:18:19;98947.91;;;11.55;39.83
35655;BME280;21773;50.010;19.972;2023-03-19T06:21:23;98933.06;;;11.82;39.59
35655;BME280;21773;50.010;19.972;2023-03-19T06:24:34;98934.81;;;12.06;39.01
35655;BME280;21773;50.010;19.972;2023-03-19T06:27:38;98947.47;;;12.36;38.69
35655;BME280;21773;50.010;19.972;2023-03-19T06:31:13;98951.63;;;12.73;38.33
35655;BME280;21773;50.010;19.972;2023-03-19T06:34:32;98961.03;;;13.06;38.03
35655;BME280;21773;50.010;19.972;2023-03-19T06:37:36;98964.00;;;13.39;37.51
35655;BME280;21773;50.010;19.972;2023-03-19T06:40:39;98964.41;;;13.71;37.18
35655;BME280;21773;50.010;19.972;2023-03-19T06:43:42;98962.97;;;14.08;36.05
35655;BME280;21773;50.010;19.972;2023-03-19T06:46:45;98968.16;;;14.38;35.31
35655;BME280;21773;50.010;19.972;2023-03-19T06:49:50;98963.94;;;14.76;35.00
35655;BME280;21773;50.010;19.972;2023-03-19T06:52:53;98967.34;;;15.21;34.49
35655;BME280;21773;50.010;19.972;2023-03-19T06:55:57;98966.72;;;15.74;33.76
35655;BME280;21773;50.010;19.972;2023-03-19T06:59:00;98969.41;;;16.18;33.16
35655;BME280;21773;50.010;19.972;2023-03-19T07:02:03;98969.38;;;16.66;31.48
35655;BME280;21773;50.010;19.972;2023-03-19T07:05:09;98962.13;;;17.14;30.64
35655;BME280;21773;50.010;19.972;2023-03-19T07:08:13;98958.34;;;17.67;30.12
35655;BME280;21773;50.010;19.972;2023-03-19T07:11:16;98959.09;;;18.30;29.70
35655;BME280;21773;50.010;19.972;2023-03-19T07:14:19;98952.59;;;18.96;28.21
35655;BME280;21773;50.010;19.972;2023-03-19T07:17:24;98959.91;;;19.62;28.06
35655;BME280;21773;50.010;19.972;2023-03-19T07:20:28;98956.63;;;20.19;26.86
35655;BME280;21773;50.010;19.972;2023-03-19T07:23:32;98963.44;;;20.70;26.92
35655;BME280;21773;50.010;19.972;2023-03-19T07:26:35;98948.03;;;21.08;25.51
35655;BME280;21773;50.010;19.972;2023-03-19T07:29:38;98956.13;;;21.52;25.71
35655;BME280;21773;50.010;19.972;2023-03-19T07:32:41;98958.03;;;21.99;25.02
35655;BME280;21773;50.010;19.972;2023-03-19T07:35:47;98948.88;;;22.46;23.71
35655;BME280;21773;50.010;19.972;2023-03-19T07:38:51;98949.38;;;22.86;23.13
35655;BME280;21773;50.010;19.972;2023-03-19T07:41:54;98946.25;;;23.39;23.05
35655;BME280;21773;50.010;19.972;2023-03-19T07:44:57;98943.44;;;23.85;22.07
35655;BME280;21773;50.010;19.972;2023-03-19T07:48:07;98939.19;;;24.14;21.86
35655;BME280;21773;50.010;19.972;2023-03-19T07:51:13;98958.94;;;24.57;21.41
35655;BME280;21773;50.010;19.972;2023-03-19T07:54:17;98955.06;;;25.03;20.78
35655;BME280;21773;50.010;19.972;2023-03-19T07:57:20;98944.56;;;25.36;20.77
35655;BME280;21773;50.010;19.972;2023-03-19T08:00:24;98948.97;;;25.76;20.04
35655;BME280;21773;50.010;19.972;2023-03-19T08:03:28;98941.56;;;26.03;19.53
35655;BME280;21773;50.010;19.972;2023-03-19T08:06:32;98950.75;;;26.29;19.35
35655;BME280;21773;50.010;19.972;2023-03-19T08:09:36;98945.41;;;26.58;19.14
35655;BME280;21773;50.010;19.972;2023-03-19T08:12:40;98936.94;;;26.81;19.08
35655;BME280;21773;50.010;19.972;2023-03-19T08:15:43;98939.25;;;26.87;18.55
35655;BME280;21773;50.010;19.972;2023-03-19T08:18:46;98928.59;;;27.15;19.01
35655;BME280;21773;50.010;19.972;2023-03-19T08:21:54;98907.22;;;27.33;17.93
35655;BME280;21773;50.010;19.972;2023-03-19T08:24:58;98927.78;;;27.70;17.38
35655;BME280;21773;50.010;19.972;2023-03-19T08:28:01;98932.13;;;27.79;17.68
35655;BME280;21773;50.010;19.972;2023-03-19T08:31:06;98932.59;;;28.11;17.56
35655;BME280;21773;50.010;19.972;2023-03-19T08:34:09;98928.41;;;28.34;16.62
35655;BME280;21773;50.010;19.972;2023-03-19T08:37:14;98925.56;;;28.42;16.64
35655;BME280;21773;50.010;19.972;2023-03-19T08:40:23;98920.75;;;28.52;16.85
35655;BME280;21773;50.010;19.972;2023-03-19T08:43:27;98927.81;;;28.49;16.42
35655;BME280;21773;50.010;19.972;2023-03-19T08:46:30;98921.16;;;28.41;17.06
35655;BME280;21773;50.010;19.972;2023-03-19T08:49:34;98931.38;;;28.29;16.55
35655;BME280;21773;50.010;19.972;2023-03-19T08:52:39;98922.44;;;27.94;16.84
35655;BME280;21773;50.010;19.972;2023-03-19T08:55:43;98912.09;;;28.03;17.08
35655;BME280;21773;50.010;19.972;2023-03-19T08:58:46;98926.28;;;28.52;17.23
35655;BME280;21773;50.010;19.972;2023-03-19T09:01:50;98923.72;;;28.88;16.59
35655;BME280;21773;50.010;19.972;2023-03-19T09:04:54;98917.38;;;29.33;16.10
35655;BME280;21773;50.010;19.972;2023-03-19T09:07:59;98911.16;;;29.84;15.97
35655;BME280;21773;50.010;19.972;2023-03-19T09:11:03;98927.84;;;29.96;15.36
35655;BME280;21773;50.010;19.972;2023-03-19T09:14:06;98929.47;;;30.22;15.23
35655;BME280;21773;50.010;19.972;2023-03-19T09:17:10;98921.97;;;30.62;15.41
35655;BME280;21773;50.010;19.972;2023-03-19T09:20:16;98925.72;;;30.82;15.15
35655;BME280;21773;50.010;19.972;2023-03-19T09:23:21;98918.75;;;30.88;15.04
35655;BME280;21773;50.010;19.972;2023-03-19T09:26:25;98907.69;;;30.91;14.84
35655;BME280;21773;50.010;19.972;2023-03-19T09:29:28;98909.47;;;31.12;14.83
35655;BME280;21773;50.010;19.972;2023-03-19T09:32:32;98911.38;;;31.39;14.13
35655;BME280;21773;50.010;19.972;2023-03-19T09:35:35;98909.53;;;31.59;14.12
35655;BME280;21773;50.010;19.972;2023-03-19T09:38:45;98906.34;;;31.92;14.04
35655;BME280;21773;50.010;19.972;2023-03-19T09:42:00;98905.25;;;32.12;13.68
35655;BME280;21773;50.010;19.972;2023-03-19T09:45:12;98897.59;;;32.09;13.68
35655;BME280;21773;50.010;19.972;2023-03-19T09:48:19;98889.84;;;32.18;13.96
35655;BME280;21773;50.010;19.972;2023-03-19T09:51:37;98888.25;;;32.36;13.49
35655;BME280;21773;50.010;19.972;2023-03-19T09:54:48;98895.69;;;32.48;13.64
35655;BME280;21773;50.010;19.972;2023-03-19T09:57:56;98895.16;;;32.61;13.18
35655;BME280;21773;50.010;19.972;2023-03-19T10:01:00;98891.50;;;32.57;13.00
35655;BME280;21773;50.010;19.972;2023-03-19T10:04:34;98886.81;;;32.42;12.89
35655;BME280;21773;50.010;19.972;2023-03-19T10:07:52;98880.13;;;32.47;12.98
35655;BME280;21773;50.010;19.972;2023-03-19T10:11:13;98880.16;;;31.96;13.29
35655;BME280;21773;50.010;19.972;2023-03-19T10:14:37;98879.00;;;31.19;13.94
35655;BME280;21773;50.010;19.972;2023-03-19T10:17:53;98879.91;;;30.51;14.30
35655;BME280;21773;50.010;19.972;2023-03-19T10:21:02;98868.84;;;30.27;14.50
35655;BME280;21773;50.010;19.972;2023-03-19T10:24:10;98867.16;;;29.86;15.08
35655;BME280;21773;50.010;19.972;2023-03-19T10:27:19;98869.38;;;29.81;15.45
35655;BME280;21773;50.010;19.972;2023-03-19T10:30:24;98866.88;;;30.16;15.03
35655;BME280;21773;50.010;19.972;2023-03-19T10:33:38;98854.13;;;30.27;14.41
35655;BME280;21773;50.010;19.972;2023-03-19T10:36:44;98858.47;;;30.52;14.95
35655;BME280;21773;50.010;19.972;2023-03-19T10:39:49;98847.84;;;30.70;13.75
35655;BME280;21773;50.010;19.972;2023-03-19T10:43:04;98848.94;;;30.81;12.90
35655;BME280;21773;50.010;19.972;2023-03-19T10:46:11;98835.63;;;30.74;13.25
35655;BME280;21773;50.010;19.972;2023-03-19T10:49:15;98838.09;;;30.91;13.88
35655;BME280;21773;50.010;19.972;2023-03-19T10:52:22;98830.16;;;31.37;13.15
35655;BME280;21773;50.010;19.972;2023-03-19T10:55:29;98834.91;;;31.68;12.70
35655;BME280;21773;50.010;19.972;2023-03-19T10:58:35;98826.81;;;31.98;12.09
35655;BME280;21773;50.010;19.972;2023-03-19T11:01:42;98813.91;;;31.90;12.07
35655;BME280;21773;50.010;19.972;2023-03-19T11:04:46;98820.50;;;31.50;12.65
35655;BME280;21773;50.010;19.972;2023-03-19T11:07:50;98818.63;;;31.70;11.70
35655;BME280;21773;50.010;19.972;2023-03-19T11:10:57;98813.44;;;31.88;11.85
35655;BME280;21773;50.010;19.972;2023-03-19T11:14:13;98817.75;;;31.66;11.18
35655;BME280;21773;50.010;19.972;2023-03-19T11:17:22;98811.00;;;31.04;11.06
35655;BME280;21773;50.010;19.972;2023-03-19T11:20:29;98819.81;;;30.63;11.13
35655;BME280;21773;50.010;19.972;2023-03-19T11:23:38;98815.38;;;30.06;10.97
35655;BME280;21773;50.010;19.972;2023-03-19T11:26:42;98802.69;;;29.81;11.31
35655;BME280;21773;50.010;19.972;2023-03-19T11:29:47;98809.03;;;29.81;11.47
35655;BME280;21773;50.010;19.972;2023-03-19T11:36:21;98786.06;;;30.08;10.95
35655;BME280;21773;50.010;19.972;2023-03-19T11:39:33;98792.09;;;30.38;11.36
35655;BME280;21773;50.010;19.972;2023-03-19T11:42:50;98784.91;;;30.65;11.05
35655;BME280;21773;50.010;19.972;2023-03-19T11:46:06;98784.91;;;30.65;10.58
35655;BME280;21773;50.010;19.972;2023-03-19T11:49:41;98779.03;;;30.27;11.37
35655;BME280;21773;50.010;19.972;2023-03-19T11:52:58;98759.22;;;30.28;11.44
35655;BME280;21773;50.010;19.972;2023-03-19T11:56:10;98757.25;;;30.72;10.93
35655;BME280;21773;50.010;19.972;2023-03-19T11:59:31;98760.97;;;31.23;11.13
35655;BME280;21773;50.010;19.972;2023-03-19T12:06:20;98767.84;;;31.45;10.83
35655;BME280;21773;50.010;19.972;2023-03-19T12:09:30;98760.59;;;31.25;10.74
35655;BME280;21773;50.010;19.972;2023-03-19T12:12:40;98763.78;;;31.42;10.74
35655;BME280;21773;50.010;19.972;2023-03-19T12:15:53;98765.91;;;31.80;10.51
35655;BME280;21773;50.010;19.972;2023-03-19T12:22:44;98747.28;;;32.04;10.81
35655;BME280;21773;50.010;19.972;2023-03-19T12:25:58;98741.47;;;31.93;10.85
35655;BME280;21773;50.010;19.972;2023-03-19T12:29:15;98751.47;;;31.94;10.74
35655;BME280;21773;50.010;19.972;2023-03-19T12:32:32;98740.53;;;31.51;9.76
35655;BME280;21773;50.010;19.972;2023-03-19T12:35:42;98729.16;;;31.09;11.07
35655;BME280;21773;50.010;19.972;2023-03-19T12:38:50;98724.50;;;30.97;11.32
35655;BME280;21773;50.010;19.972;2023-03-19T12:41:57;98721.16;;;30.91;10.96
35655;BME280;21773;50.010;19.972;2023-03-19T12:45:10;98721.69;;;30.50;11.55
35655;BME280;21773;50.010;19.972;2023-03-19T12:48:20;98714.72;;;30.28;11.12
35655;BME280;21773;50.010;19.972;2023-03-19T12:51:33;98713.91;;;30.28;12.20
35655;BME280;21773;50.010;19.972;2023-03-19T12:54:42;98716.44;;;30.33;11.95
35655;BME280;21773;50.010;19.972;2023-03-19T12:57:50;98705.00;;;30.22;11.69
35655;BME280;21773;50.010;19.972;2023-03-19T13:00:58;98695.22;;;29.73;11.65
35655;BME280;21773;50.010;19.972;2023-03-19T13:04:07;98691.38;;;29.37;11.85
35655;BME280;21773;50.010;19.972;2023-03-19T13:07:20;98695.47;;;28.91;12.66
35655;BME280;21773;50.010;19.972;2023-03-19T13:10:24;98694.41;;;28.71;12.10
35655;BME280;21773;50.010;19.972;2023-03-19T13:13:38;98690.06;;;28.50;12.75
35655;BME280;21773;50.010;19.972;2023-03-19T13:16:49;98694.50;;;28.63;12.27
35655;BME280;21773;50.010;19.972;2023-03-19T13:19:53;98670.31;;;28.51;12.68
35655;BME280;21773;50.010;19.972;2023-03-19T13:23:02;98693.69;;;28.62;12.88
35655;BME280;21773;50.010;19.972;2023-03-19T13:26:09;98686.91;;;28.72;13.72
35655;BME280;21773;50.010;19.972;2023-03-19T13:29:18;98685.47;;;28.66;13.09
35655;BME280;21773;50.010;19.972;2023-03-19T13:32:23;98684.03;;;28.35;12.88
35655;BME280;21773;50.010;19.972;2023-03-19T13:35:34;98676.78;;;28.10;13.47
35655;BME280;21773;50.010;19.972;2023-03-19T13:38:43;98676.59;;;28.15;13.17
35655;BME280;21773;50.010;19.972;2023-03-19T13:41:56;98670.69;;;27.84;13.16
35655;BME280;21773;50.010;19.972;2023-03-19T13:45:01;98662.84;;;27.24;13.62
35655;BME280;21773;50.010;19.972;2023-03-19T13:48:33;98668.31;;;27.32;13.50
35655;BME280;21773;50.010;19.972;2023-03-19T13:51:37;98666.91;;;27.47;13.90
35655;BME280;21773;50.010;19.972;2023-03-19T13:54:43;98668.06;;;27.25;14.20
35655;BME280;21773;50.010;19.972;2023-03-19T13:57:53;98664.13;;;27.05;14.41
35655;BME280;21773;50.010;19.972;2023-03-19T14:01:03;98668.47;;;27.15;15.10
35655;BME280;21773;50.010;19.972;2023-03-19T14:04:16;98668.72;;;27.01;14.41
35655;BME280;21773;50.010;19.972;2023-03-19T14:07:23;98661.34;;;26.76;14.29
35655;BME280;21773;50.010;19.972;2023-03-19T14:10:30;98655.88;;;26.59;14.46
35655;BME280;21773;50.010;19.972;2023-03-19T14:13:38;98658.69;;;26.50;15.08
35655;BME280;21773;50.010;19.972;2023-03-19T14:16:44;98652.66;;;26.57;15.11
35655;BME280;21773;50.010;19.972;2023-03-19T14:19:48;98659.81;;;26.58;15.44
35655;BME280;21773;50.010;19.972;2023-03-19T14:23:01;98655.59;;;26.52;15.25
35655;BME280;21773;50.010;19.972;2023-03-19T14:26:12;98635.47;;;26.34;15.20
35655;BME280;21773;50.010;19.972;2023-03-19T14:29:17;98657.13;;;26.32;15.21
35655;BME280;21773;50.010;19.972;2023-03-19T14:32:24;98657.63;;;26.17;15.29
35655;BME280;21773;50.010;19.972;2023-03-19T14:35:34;98655.09;;;25.95;15.25
35655;BME280;21773;50.010;19.972;2023-03-19T14:38:45;98657.22;;;25.72;15.63
35655;BME280;21773;50.010;19.972;2023-03-19T14:41:59;98667.09;;;25.47;15.84
35655;BME280;21773;50.010;19.972;2023-03-19T14:45:20;98665.47;;;25.20;15.82
35655;BME280;21773;50.010;19.972;2023-03-19T14:49:06;98662.47;;;24.82;16.62
35655;BME280;21773;50.010;19.972;2023-03-19T14:52:21;98660.88;;;24.50;17.03
35655;BME280;21773;50.010;19.972;2023-03-19T14:55:32;98662.22;;;24.22;17.37
35655;BME280;21773;50.010;19.972;2023-03-19T14:58:46;98660.72;;;23.94;17.27
35655;BME280;21773;50.010;19.972;2023-03-19T15:01:52;98661.84;;;23.70;17.37
35655;BME280;21773;50.010;19.972;2023-03-19T15:04:56;98666.38;;;23.30;17.52
35655;BME280;21773;50.010;19.972;2023-03-19T15:08:03;98674.38;;;23.05;17.77
35655;BME280;21773;50.010;19.972;2023-03-19T15:11:38;98669.59;;;22.97;17.98
35655;BME280;21773;50.010;19.972;2023-03-19T15:15:07;98668.38;;;22.89;17.97
35655;BME280;21773;50.010;19.972;2023-03-19T15:18:16;98675.09;;;22.83;18.37
35655;BME280;21773;50.010;19.972;2023-03-19T15:21:21;98662.06;;;22.75;18.57
35655;BME280;21773;50.010;19.972;2023-03-19T15:24:25;98666.56;;;22.71;18.74
35655;BME280;21773;50.010;19.972;2023-03-19T15:27:28;98661.81;;;22.17;18.84
35655;BME280;21773;50.010;19.972;2023-03-19T15:30:33;98652.41;;;22.04;18.98
35655;BME280;21773;50.010;19.972;2023-03-19T15:33:55;98647.94;;;21.76;19.25
35655;BME280;21773;50.010;19.972;2023-03-19T15:37:01;98654.34;;;21.71;20.06
35655;BME280;21773;50.010;19.972;2023-03-19T15:40:10;98653.34;;;21.48;19.82
35655;BME280;21773;50.010;19.972;2023-03-19T15:43:15;98652.22;;;21.31;19.62
35655;BME280;21773;50.010;19.972;2023-03-19T15:46:24;98654.91;;;21.17;20.41
35655;BME280;21773;50.010;19.972;2023-03-19T15:49:31;98666.47;;;21.14;20.59
35655;BME280;21773;50.010;19.972;2023-03-19T15:52:38;98663.78;;;21.09;20.81
35655;BME280;21773;50.010;19.972;2023-03-19T15:55:43;98663.91;;;20.99;21.00
35655;BME280;21773;50.010;19.972;2023-03-19T15:58:48;98674.13;;;20.93;20.98
35655;BME280;21773;50.010;19.972;2023-03-19T16:01:58;98666.63;;;20.80;21.62
35655;BME280;21773;50.010;19.972;2023-03-19T16:05:02;98677.06;;;20.54;21.63
35655;BME280;21773;50.010;19.972;2023-03-19T16:08:25;98682.19;;;20.37;22.57
35655;BME280;21773;50.010;19.972;2023-03-19T16:11:29;98687.22;;;20.25;22.53
35655;BME280;21773;50.010;19.972;2023-03-19T16:14:40;98684.88;;;20.13;22.91
35655;BME280;21773;50.010;19.972;2023-03-19T16:17:45;98682.75;;;20.05;23.01
35655;BME280;21773;50.010;19.972;2023-03-19T16:20:59;98686.44;;;19.90;23.81
35655;BME280;21773;50.010;19.972;2023-03-19T16:24:13;98676.50;;;19.71;23.42
35655;BME280;21773;50.010;19.972;2023-03-19T16:27:18;98697.59;;;19.65;24.03
35655;BME280;21773;50.010;19.972;2023-03-19T16:30:24;98694.94;;;19.55;23.61
35655;BME280;21773;50.010;19.972;2023-03-19T16:33:29;98696.94;;;19.44;23.74
35655;BME280;21773;50.010;19.972;2023-03-19T16:36:32;98705.72;;;19.31;24.04